Historique des mesures à Cassis (13260), France
Quotidien Résumé Juin 14, 2021 Unités:  US    Métrique   Métrique/US
Quotidien Hebdomadaire Mensuel Annuel
  Maximum: Minimum: Moyenne:
Température: 70.9 °F 57.6 °F 62.4 °F
Point de rosée: 51.3 °F 44.2 °F 48 °F
Humidité: 71% 50% 59%
Vitesse du vent: 9.4mph 0mph 3.9mph
Rafales: 11.2mph - -
Vent- - WNW
Pression: 30.2 in 30 in -
Précipitations: 0 in    
Historical Graphs
 
 
Mesures pour : Juin 14, 2021
Heure Temperature Point de rosée Pression Vent Vitesse du vent Rafales Humidité Pluie (par heure)
00:11 59.4 °F 44.6 °F 30 in NW 7 mph 10.3 mph 58% 0 in
01:11 59.5 °F 44.8 °F 30.1 in WNW 5.2 mph 8.3 mph 58% 0 in
02:11 59 °F 44.2 °F 30.1 in NW 6 mph 8.7 mph 58% 0 in
03:11 59.5 °F 44.2 °F 30.1 in WNW 5.8 mph 7 mph 57% 0 in
04:11 59 °F 44.6 °F 30.1 in NW 2 mph 4.7 mph 59% 0 in
05:11 58.1 °F 46 °F 30.1 in NW 9.4 mph 11.2 mph 64% 0 in
06:11 57.9 °F 45.3 °F 30.1 in NW 9.2 mph 10.5 mph 63% 0 in
07:11 57.7 °F 45.1 °F 30.1 in NW 8.9 mph 10.7 mph 63% 0 in
08:11 58.3 °F 46.6 °F 30.1 in NW 7.8 mph 11.2 mph 65% 0 in
09:11 59.9 °F 48.2 °F 30.1 in WNW 2.2 mph 6.3 mph 65% 0 in
10:11 62.1 °F 49.3 °F 30.2 in Calm   3.4 mph 63% 0 in
11:11 64.9 °F 49.8 °F 30.2 in Calm   2.7 mph 58% 0 in
12:11 67.1 °F 50.4 °F 30.2 in Calm   4.7 mph 55% 0 in
13:11 68.7 °F 50.4 °F 30.2 in SSE 2 mph 5.8 mph 52% 0 in
14:11 69.4 °F 51.1 °F 30.1 in Calm   3.8 mph 52% 0 in
15:11 70.9 °F 51.3 °F 30.1 in South 3.1 mph 5.2 mph 50% 0 in
16:11 70.5 °F 51.1 °F 30.1 in South 2.2 mph 5.2 mph 50% 0 in
17:11 69.6 °F 50.7 °F 30.1 in Calm   2.2 mph 51% 0 in
18:11 67.8 °F 50.5 °F 30.1 in SSW 1.1 mph 4.5 mph 54% 0 in
19:11 64.2 °F 49.1 °F 30.1 in West 1.8 mph 3.4 mph 58% 0 in
20:11 60.6 °F 48.4 °F 30.1 in NW 3.1 mph 5.6 mph 64% 0 in
21:11 58.8 °F 48.2 °F 30.1 in NW 4.9 mph 5.6 mph 68% 0 in
22:11 58.3 °F 48.2 °F 30.1 in NNW 4.7 mph 6.5 mph 69% 0 in
23:11 57.6 °F 48.2 °F 30.1 in NW 6.3 mph 8.7 mph 71% 0 in
Observations météo à CASSIS
WU-History script by Weather Underground - 2 mb